createdAt,value
2017-12-23T00:00:43.400Z,2.60
2017-12-23T00:03:10.988Z,2.60
2017-12-23T00:05:38.583Z,2.60
2017-12-23T00:08:06.944Z,2.60
2017-12-23T00:10:34.538Z,2.60
2017-12-23T00:13:02.127Z,2.60
2017-12-23T00:15:29.728Z,2.60
2017-12-23T00:17:58.040Z,2.60
2017-12-23T00:20:25.608Z,2.60
2017-12-23T00:22:53.198Z,2.60
2017-12-23T00:25:20.789Z,2.60
2017-12-23T00:27:48.380Z,2.60
2017-12-23T00:30:15.890Z,2.60
2017-12-23T00:32:44.248Z,2.60
2017-12-23T00:35:11.806Z,2.60
2017-12-23T00:37:39.398Z,2.60
2017-12-23T00:40:07.756Z,2.60
2017-12-23T00:42:35.351Z,2.60
2017-12-23T00:45:03.703Z,2.60
2017-12-23T00:47:31.260Z,2.60
2017-12-23T00:49:58.851Z,2.60
2017-12-23T00:52:27.209Z,2.60
2017-12-23T00:54:54.795Z,2.60
2017-12-23T00:57:23.106Z,2.60
2017-12-23T00:59:50.667Z,2.60
2017-12-23T01:02:18.216Z,2.60
2017-12-23T01:04:45.854Z,2.60
2017-12-23T01:07:14.184Z,2.60
2017-12-23T01:09:41.782Z,2.60
2017-12-23T01:12:10.140Z,2.60
2017-12-23T01:14:37.763Z,2.60
2017-12-23T01:17:05.314Z,2.60
2017-12-23T01:19:32.908Z,2.60
2017-12-23T01:22:00.491Z,2.60
2017-12-23T01:24:28.040Z,2.60
2017-12-23T01:26:55.694Z,2.60
2017-12-23T01:29:23.246Z,2.60
2017-12-23T01:31:50.835Z,2.60
2017-12-23T01:34:18.426Z,2.60
2017-12-23T01:36:46.737Z,2.60
2017-12-23T01:39:14.332Z,2.60
2017-12-23T01:41:41.877Z,2.60
2017-12-23T01:44:09.462Z,2.60
2017-12-23T01:46:37.052Z,2.50
2017-12-23T01:49:04.638Z,2.60
2017-12-23T01:51:32.224Z,2.60
2017-12-23T01:54:00.593Z,2.60
2017-12-23T01:56:28.148Z,2.60
2017-12-23T01:58:55.734Z,2.60
2017-12-23T02:01:23.332Z,2.60
2017-12-23T02:03:51.674Z,2.60
2017-12-23T02:06:19.267Z,2.60
2017-12-23T02:08:47.614Z,2.60
2017-12-23T02:11:15.207Z,2.50
2017-12-23T02:13:43.527Z,2.50
2017-12-23T02:16:11.115Z,2.60
2017-12-23T02:18:38.700Z,2.60
2017-12-23T02:21:07.067Z,2.60
2017-12-23T02:23:34.626Z,2.60
2017-12-23T02:26:02.186Z,2.60
2017-12-23T02:28:29.758Z,2.60
2017-12-23T02:30:58.081Z,2.50
2017-12-23T02:33:25.675Z,2.50
2017-12-23T02:35:53.267Z,2.50
2017-12-23T02:38:21.623Z,2.60
2017-12-23T02:40:49.212Z,2.60
2017-12-23T02:43:17.533Z,2.60
2017-12-23T02:45:45.138Z,2.60
2017-12-23T02:48:13.540Z,2.60
2017-12-23T02:50:41.131Z,2.60
2017-12-23T02:53:08.675Z,2.60
2017-12-23T02:55:36.233Z,2.60
2017-12-23T02:58:03.751Z,2.60
2017-12-23T03:00:32.082Z,2.60
2017-12-23T03:02:59.670Z,2.60
2017-12-23T03:05:27.254Z,2.60
2017-12-23T03:07:55.609Z,2.60
2017-12-23T03:10:23.205Z,2.60
2017-12-23T03:12:51.562Z,2.60
2017-12-23T03:15:19.113Z,2.60
2017-12-23T03:17:46.748Z,2.60
2017-12-23T03:20:14.341Z,2.70
2017-12-23T03:22:41.935Z,2.70
2017-12-23T03:25:09.479Z,2.60
2017-12-23T03:27:37.909Z,2.70
2017-12-23T03:30:05.509Z,2.70
2017-12-23T03:32:33.871Z,2.70
2017-12-23T03:35:01.524Z,2.70
2017-12-23T03:37:29.110Z,2.70
2017-12-23T03:39:57.466Z,2.80
2017-12-23T03:42:25.063Z,2.70
2017-12-23T03:44:53.416Z,2.80
2017-12-23T03:47:21.065Z,2.80
2017-12-23T03:49:48.671Z,2.80
2017-12-23T03:52:16.221Z,2.80
2017-12-23T03:54:43.773Z,2.80
2017-12-23T03:57:12.093Z,2.80
2017-12-23T03:59:39.658Z,2.80
2017-12-23T04:02:07.209Z,2.80
2017-12-23T04:04:34.799Z,2.80
2017-12-23T04:07:02.354Z,2.80
2017-12-23T04:09:29.956Z,2.80
2017-12-23T04:11:58.312Z,2.80
2017-12-23T04:14:25.862Z,2.80
2017-12-23T04:16:53.452Z,2.80
2017-12-23T04:19:21.810Z,2.90
2017-12-23T04:21:49.368Z,2.80
2017-12-23T04:24:16.983Z,2.80
2017-12-23T04:26:44.571Z,2.90
2017-12-23T04:29:12.163Z,2.90
2017-12-23T04:31:40.515Z,2.90
2017-12-23T04:34:08.117Z,2.90
2017-12-23T04:36:35.711Z,2.90
2017-12-23T04:39:03.365Z,2.90
2017-12-23T04:41:30.926Z,2.90
2017-12-23T04:43:58.517Z,2.90
2017-12-23T04:46:26.111Z,2.90
2017-12-23T04:48:53.700Z,2.90
2017-12-23T04:51:21.294Z,2.90
2017-12-23T04:53:48.925Z,2.90
2017-12-23T04:56:16.528Z,2.90
2017-12-23T04:58:44.114Z,2.90
2017-12-23T05:01:11.669Z,2.90
2017-12-23T05:03:39.260Z,2.90
2017-12-23T05:06:06.861Z,2.90
2017-12-23T05:08:34.455Z,2.90
2017-12-23T05:11:02.046Z,2.90
2017-12-23T05:13:29.715Z,2.90
2017-12-23T05:15:57.316Z,2.90
2017-12-23T05:18:25.680Z,2.90
2017-12-23T05:20:53.269Z,2.90
2017-12-23T05:23:21.586Z,3.00
2017-12-23T05:25:49.180Z,3.00
2017-12-23T05:28:16.780Z,3.00
2017-12-23T05:30:44.387Z,3.00
2017-12-23T05:33:11.975Z,3.00
2017-12-23T05:35:40.331Z,3.00
2017-12-23T05:38:07.960Z,3.00
2017-12-23T05:40:35.502Z,3.00
2017-12-23T05:43:03.054Z,3.10
2017-12-23T05:45:30.659Z,3.10
2017-12-23T05:47:58.212Z,3.10
2017-12-23T05:50:25.807Z,3.10
2017-12-23T05:52:53.361Z,3.20
2017-12-23T05:55:20.917Z,3.20
2017-12-23T05:57:48.519Z,3.20
2017-12-23T06:00:16.141Z,3.20
2017-12-23T06:02:43.735Z,3.30
2017-12-23T06:05:11.297Z,3.30
2017-12-23T06:07:38.896Z,3.30
2017-12-23T06:10:06.488Z,3.30
2017-12-23T06:12:34.079Z,3.30
2017-12-23T06:15:01.670Z,3.30
2017-12-23T06:17:29.751Z,3.30
2017-12-23T06:19:57.305Z,3.40
2017-12-23T06:22:24.903Z,3.40
2017-12-23T06:24:53.265Z,3.30
2017-12-23T06:27:20.857Z,3.30
2017-12-23T06:29:49.208Z,3.40
2017-12-23T06:32:16.813Z,3.40
2017-12-23T06:34:44.405Z,3.40
2017-12-23T06:37:13.111Z,3.40
2017-12-23T06:39:40.706Z,3.40
2017-12-23T06:42:09.059Z,3.40
2017-12-23T06:44:36.651Z,3.40
2017-12-23T06:47:04.239Z,3.40
2017-12-23T06:49:31.836Z,3.50
2017-12-23T06:51:59.423Z,3.40
2017-12-23T06:54:27.777Z,3.50
2017-12-23T06:56:55.375Z,3.50
2017-12-23T06:59:23.001Z,3.50
2017-12-23T07:01:50.599Z,3.50
2017-12-23T07:04:18.154Z,3.50
2017-12-23T07:06:45.899Z,3.60
2017-12-23T07:09:14.256Z,3.60
2017-12-23T07:11:41.820Z,3.60
2017-12-23T07:14:09.418Z,3.60
2017-12-23T07:16:36.972Z,3.60
2017-12-23T07:19:04.500Z,3.60
2017-12-23T07:21:32.094Z,3.70
2017-12-23T07:23:59.684Z,3.60
2017-12-23T07:26:27.248Z,3.70
2017-12-23T07:28:54.847Z,3.70
2017-12-23T07:31:22.479Z,3.70
2017-12-23T07:33:50.068Z,3.70
2017-12-23T07:36:17.639Z,3.80
2017-12-23T07:38:45.965Z,3.80
2017-12-23T07:41:13.555Z,3.80
2017-12-23T07:43:41.142Z,3.90
2017-12-23T07:46:09.466Z,3.90
2017-12-23T07:48:37.063Z,3.90
2017-12-23T07:51:04.656Z,3.90
2017-12-23T07:53:32.974Z,4.00
2017-12-23T07:56:00.571Z,3.90
2017-12-23T07:58:28.222Z,4.00
2017-12-23T08:00:55.813Z,4.10
2017-12-23T08:03:24.178Z,4.10
2017-12-23T08:05:52.542Z,4.20
2017-12-23T08:08:21.287Z,4.20
2017-12-23T08:10:48.841Z,4.20
2017-12-23T08:13:16.430Z,4.20
2017-12-23T08:15:45.154Z,4.30
2017-12-23T08:18:13.479Z,4.40
2017-12-23T08:20:41.068Z,4.40
2017-12-23T08:23:08.625Z,4.40
2017-12-23T08:25:36.223Z,4.50
2017-12-23T08:28:04.575Z,4.50
2017-12-23T08:30:32.162Z,4.50
2017-12-23T08:33:00.519Z,4.50
2017-12-23T08:35:28.111Z,4.50
2017-12-23T08:37:56.471Z,4.50
2017-12-23T08:40:24.827Z,4.60
2017-12-23T08:42:52.422Z,4.50
2017-12-23T08:45:20.783Z,4.70
2017-12-23T08:47:48.372Z,4.60
2017-12-23T08:50:15.992Z,4.70
2017-12-23T08:52:43.583Z,4.80
2017-12-23T08:55:11.934Z,4.90
2017-12-23T08:57:39.530Z,5.00
2017-12-23T09:00:07.212Z,5.10
2017-12-23T09:02:34.800Z,5.20
2017-12-23T09:05:02.388Z,5.20
2017-12-23T09:07:30.140Z,5.30
2017-12-23T09:09:57.735Z,5.30
2017-12-23T09:12:26.087Z,5.30
2017-12-23T09:14:53.684Z,5.30
2017-12-23T09:17:21.759Z,5.30
2017-12-23T09:19:49.311Z,5.30
2017-12-23T09:22:16.975Z,5.30
2017-12-23T09:24:44.535Z,5.40
2017-12-23T09:27:12.131Z,5.40
2017-12-23T09:29:39.727Z,5.40
2017-12-23T09:32:07.321Z,5.50
2017-12-23T09:34:34.917Z,5.50
2017-12-23T09:37:02.516Z,5.50
2017-12-23T09:39:30.884Z,5.50
2017-12-23T09:41:59.459Z,5.50
2017-12-23T09:44:27.043Z,5.50
2017-12-23T09:46:55.417Z,5.50
2017-12-23T09:49:23.797Z,5.50
2017-12-23T09:51:52.159Z,5.60
2017-12-23T09:54:19.750Z,5.50
2017-12-23T09:56:47.403Z,5.60
2017-12-23T09:59:15.901Z,5.60
2017-12-23T10:01:43.500Z,5.60
2017-12-23T10:04:11.098Z,5.60
2017-12-23T10:06:38.694Z,5.70
2017-12-23T10:09:06.251Z,5.70
2017-12-23T10:11:34.189Z,5.80
2017-12-23T10:14:01.736Z,5.80
2017-12-23T10:16:29.349Z,5.80
2017-12-23T10:18:56.951Z,5.80
2017-12-23T10:21:25.340Z,5.80
2017-12-23T10:23:53.005Z,5.70
2017-12-23T10:26:20.602Z,5.80
2017-12-23T10:28:48.191Z,5.80
2017-12-23T10:31:15.781Z,5.70
2017-12-23T10:33:43.393Z,5.80
2017-12-23T10:36:11.202Z,5.80
2017-12-23T10:38:38.818Z,5.80
2017-12-23T10:41:06.420Z,5.90
2017-12-23T10:43:33.980Z,6.00
2017-12-23T10:46:01.575Z,6.00
2017-12-23T10:48:29.926Z,6.00
2017-12-23T10:50:57.524Z,6.00
2017-12-23T10:53:25.112Z,6.00
2017-12-23T10:55:52.661Z,6.00
2017-12-23T10:58:20.442Z,6.00
2017-12-23T11:00:48.183Z,6.00
2017-12-23T11:03:16.584Z,6.00
2017-12-23T11:05:44.176Z,6.00
2017-12-23T11:08:11.784Z,6.10
2017-12-23T11:10:39.375Z,6.10
2017-12-23T11:13:06.967Z,6.10
2017-12-23T11:15:34.600Z,6.10
2017-12-23T11:18:02.256Z,6.10
2017-12-23T11:20:29.899Z,6.20
2017-12-23T11:22:57.500Z,6.20
2017-12-23T11:25:25.059Z,6.30
2017-12-23T11:27:52.622Z,6.30
2017-12-23T11:30:20.267Z,6.30
2017-12-23T11:32:47.856Z,6.30
2017-12-23T11:35:15.448Z,6.40
2017-12-23T11:37:43.043Z,6.40
2017-12-23T11:40:10.591Z,6.50
2017-12-23T11:42:38.188Z,6.60
2017-12-23T11:45:05.820Z,6.70
2017-12-23T11:47:33.399Z,6.60
2017-12-23T11:50:00.977Z,6.70
2017-12-23T11:52:28.565Z,6.60
2017-12-23T11:54:57.078Z,6.60
2017-12-23T11:57:28.320Z,6.60
2017-12-23T12:00:03.598Z,6.50
2017-12-23T12:02:33.160Z,6.50
2017-12-23T12:05:02.270Z,6.50
2017-12-23T12:07:40.170Z,6.40
2017-12-23T12:10:08.368Z,6.40
2017-12-23T12:12:36.048Z,6.40
2017-12-23T12:15:03.713Z,6.40
2017-12-23T12:17:31.346Z,6.50
2017-12-23T12:19:59.032Z,6.50
2017-12-23T12:22:26.631Z,6.50
2017-12-23T12:24:54.194Z,6.50
2017-12-23T12:27:21.758Z,6.50
2017-12-23T12:29:49.347Z,6.50
2017-12-23T12:32:16.945Z,6.50
2017-12-23T12:34:45.301Z,6.50
2017-12-23T12:37:12.976Z,6.50
2017-12-23T12:39:40.661Z,6.50
2017-12-23T12:42:09.073Z,6.50
2017-12-23T12:44:36.659Z,6.50
2017-12-23T12:47:04.249Z,6.50
2017-12-23T12:49:32.618Z,6.50
2017-12-23T12:52:00.216Z,6.50
2017-12-23T12:54:27.826Z,6.50
2017-12-23T12:56:55.415Z,6.50
2017-12-23T12:59:23.775Z,6.50
2017-12-23T13:01:51.375Z,6.40
2017-12-23T13:04:18.968Z,6.50
2017-12-23T13:06:46.629Z,6.50
2017-12-23T13:09:14.443Z,6.40
2017-12-23T13:11:42.760Z,6.40
2017-12-23T13:14:10.567Z,6.40
2017-12-23T13:16:38.154Z,6.40
2017-12-23T13:19:06.730Z,6.40
2017-12-23T13:21:35.236Z,6.40
2017-12-23T13:24:02.822Z,6.40
2017-12-23T13:26:30.367Z,6.40
2017-12-23T13:28:58.696Z,6.40
2017-12-23T13:31:26.286Z,6.40
2017-12-23T13:33:53.882Z,6.40
2017-12-23T13:36:21.716Z,6.40
2017-12-23T13:38:49.263Z,6.40
2017-12-23T13:41:17.618Z,6.40
2017-12-23T13:43:45.167Z,6.40
2017-12-23T13:46:12.760Z,6.40
2017-12-23T13:48:41.119Z,6.40
2017-12-23T13:51:08.890Z,6.40
2017-12-23T13:53:36.531Z,6.40
2017-12-23T13:56:04.916Z,6.40
2017-12-23T13:58:32.508Z,6.40
2017-12-23T14:01:00.863Z,6.40
2017-12-23T14:03:28.615Z,6.40
2017-12-23T14:05:56.245Z,6.50
2017-12-23T14:08:23.839Z,6.50
2017-12-23T14:10:51.603Z,6.50
2017-12-23T14:13:19.196Z,6.50
2017-12-23T14:15:47.764Z,6.50
2017-12-23T14:18:17.065Z,6.50
2017-12-23T14:20:44.724Z,6.50
2017-12-23T14:23:12.302Z,6.50
2017-12-23T14:25:40.621Z,6.50
2017-12-23T14:28:08.231Z,6.50
2017-12-23T14:30:36.660Z,6.50
2017-12-23T14:33:05.493Z,6.60
2017-12-23T14:35:33.106Z,6.60
2017-12-23T14:38:00.664Z,6.60
2017-12-23T14:40:28.467Z,6.60
2017-12-23T14:42:56.033Z,6.60
2017-12-23T14:45:23.631Z,6.60
2017-12-23T14:47:51.259Z,6.60
2017-12-23T14:50:18.813Z,6.70
2017-12-23T14:52:47.253Z,6.70
2017-12-23T14:55:14.877Z,6.60
2017-12-23T14:57:43.230Z,6.70
2017-12-23T15:00:10.818Z,6.70
2017-12-23T15:02:39.168Z,6.70
2017-12-23T15:05:06.769Z,6.70
2017-12-23T15:07:34.357Z,6.80
2017-12-23T15:10:01.905Z,6.80
2017-12-23T15:12:29.732Z,6.80
2017-12-23T15:14:58.094Z,6.90
2017-12-23T15:17:25.679Z,6.90
2017-12-23T15:19:54.075Z,6.90
2017-12-23T15:22:21.706Z,6.80
2017-12-23T15:24:49.266Z,6.90
2017-12-23T15:27:17.645Z,6.90
2017-12-23T15:29:45.238Z,6.90
2017-12-23T15:32:12.825Z,6.90
2017-12-23T15:34:40.411Z,6.90
2017-12-23T15:37:07.996Z,6.90
2017-12-23T15:39:36.941Z,6.90
2017-12-23T15:42:05.391Z,7.00
2017-12-23T15:44:33.113Z,6.90
2017-12-23T15:47:00.704Z,7.00
2017-12-23T15:49:29.343Z,7.00
2017-12-23T15:51:57.048Z,7.00
2017-12-23T15:54:25.416Z,7.00
2017-12-23T15:56:53.000Z,7.00
2017-12-23T15:59:20.638Z,7.10
2017-12-23T16:01:48.223Z,7.10
2017-12-23T16:04:15.817Z,7.10
2017-12-23T16:06:43.602Z,7.10
2017-12-23T16:09:11.246Z,7.10
2017-12-23T16:11:38.837Z,7.10
2017-12-23T16:14:06.425Z,7.10
2017-12-23T16:16:34.826Z,7.10
2017-12-23T16:19:02.440Z,7.10
2017-12-23T16:21:30.807Z,7.20
2017-12-23T16:23:58.406Z,7.10
2017-12-23T16:26:26.756Z,7.20
2017-12-23T16:28:54.442Z,7.20
2017-12-23T16:31:22.803Z,7.20
2017-12-23T16:33:50.557Z,7.20
2017-12-23T16:36:18.156Z,7.20
2017-12-23T16:38:45.746Z,7.20
2017-12-23T16:41:13.381Z,7.20
2017-12-23T16:43:40.966Z,7.20
2017-12-23T16:46:08.563Z,7.20
2017-12-23T16:48:36.147Z,7.20
2017-12-23T16:51:04.500Z,7.30
2017-12-23T16:53:32.049Z,7.20
2017-12-23T16:55:59.823Z,7.30
2017-12-23T16:58:27.455Z,7.20
2017-12-23T17:00:55.100Z,7.20
2017-12-23T17:03:23.427Z,7.30
2017-12-23T17:05:51.022Z,7.20
2017-12-23T17:08:18.655Z,7.30
2017-12-23T17:10:46.247Z,7.30
2017-12-23T17:13:13.847Z,7.30
2017-12-23T17:15:41.440Z,7.30
2017-12-23T17:18:09.042Z,7.30
2017-12-23T17:20:36.736Z,7.40
2017-12-23T17:23:04.338Z,7.30
2017-12-23T17:25:32.631Z,7.30
2017-12-23T17:28:00.265Z,7.30
2017-12-23T17:30:33.240Z,7.30
2017-12-23T17:33:00.878Z,7.30
2017-12-23T17:35:28.507Z,7.30
2017-12-23T17:37:56.141Z,7.30
2017-12-23T17:40:24.521Z,7.30
2017-12-23T17:42:52.878Z,7.40
2017-12-23T17:45:20.425Z,7.30
2017-12-23T17:47:48.034Z,7.40
2017-12-23T17:50:21.280Z,7.40
2017-12-23T17:52:48.875Z,7.40
2017-12-23T17:55:16.656Z,7.40
2017-12-23T17:57:44.306Z,7.40
2017-12-23T18:00:11.872Z,7.40
2017-12-23T18:02:39.471Z,7.40
2017-12-23T18:05:07.838Z,7.40
2017-12-23T18:07:36.411Z,7.40
2017-12-23T18:10:04.768Z,7.40
2017-12-23T18:12:32.359Z,7.40
2017-12-23T18:15:00.736Z,7.40
2017-12-23T18:17:29.149Z,7.40
2017-12-23T18:19:56.702Z,7.40
2017-12-23T18:22:24.305Z,7.40
2017-12-23T18:24:51.939Z,7.40
2017-12-23T18:27:19.535Z,7.40
2017-12-23T18:29:47.175Z,7.40
2017-12-23T18:32:14.759Z,7.40
2017-12-23T18:34:42.431Z,7.40
2017-12-23T18:37:09.990Z,7.40
2017-12-23T18:39:37.597Z,7.40
2017-12-23T18:42:05.168Z,7.40
2017-12-23T18:44:32.780Z,7.40
2017-12-23T18:47:00.399Z,7.40
2017-12-23T18:49:28.008Z,7.30
2017-12-23T18:51:56.410Z,7.40
2017-12-23T18:54:24.005Z,7.40
2017-12-23T18:56:51.556Z,7.40
2017-12-23T18:59:25.080Z,7.30
2017-12-23T19:01:54.127Z,7.30
2017-12-23T19:04:21.682Z,7.30
2017-12-23T19:06:49.276Z,7.30
2017-12-23T19:09:18.128Z,7.40
2017-12-23T19:11:45.727Z,7.30
2017-12-23T19:14:13.328Z,7.30
2017-12-23T19:16:59.671Z,7.40
2017-12-23T19:19:27.312Z,7.40
2017-12-23T19:21:55.055Z,7.30
2017-12-23T19:24:22.641Z,7.40
2017-12-23T19:26:50.281Z,7.30
2017-12-23T19:29:17.828Z,7.40
2017-12-23T19:31:46.183Z,7.30
2017-12-23T19:34:13.769Z,7.30
2017-12-23T19:36:42.125Z,7.30
2017-12-23T19:39:09.673Z,7.30
2017-12-23T19:41:37.230Z,7.30
2017-12-23T19:44:05.820Z,7.40
2017-12-23T19:46:33.393Z,7.30
2017-12-23T19:49:00.994Z,7.40
2017-12-23T19:51:28.666Z,7.40
2017-12-23T19:53:56.178Z,7.30
2017-12-23T19:56:24.577Z,7.30
2017-12-23T19:58:52.958Z,7.30
2017-12-23T20:01:20.545Z,7.40
2017-12-23T20:03:48.164Z,7.30
2017-12-23T20:06:16.617Z,7.30
2017-12-23T20:08:44.199Z,7.30
2017-12-23T20:11:12.566Z,7.30
2017-12-23T20:13:40.155Z,7.30
2017-12-23T20:16:08.503Z,7.30
2017-12-23T20:18:36.098Z,7.30
2017-12-23T20:21:03.692Z,7.30
2017-12-23T20:23:31.278Z,7.30
2017-12-23T20:25:58.866Z,7.30
2017-12-23T20:28:27.216Z,7.30
2017-12-23T20:30:54.800Z,7.30
2017-12-23T20:33:23.168Z,7.30
2017-12-23T20:35:50.752Z,7.30
2017-12-23T20:38:19.103Z,7.30
2017-12-23T20:40:47.779Z,7.20
2017-12-23T20:43:16.122Z,7.20
2017-12-23T20:45:43.721Z,7.20
2017-12-23T20:48:11.368Z,7.30
2017-12-23T20:50:38.956Z,7.20
2017-12-23T20:53:06.550Z,7.20
2017-12-23T20:55:34.137Z,7.20
2017-12-23T20:58:01.725Z,7.20
2017-12-23T21:00:29.371Z,7.10
2017-12-23T21:02:57.047Z,7.10
2017-12-23T21:05:24.633Z,7.10
2017-12-23T21:07:52.991Z,7.10
2017-12-23T21:10:20.584Z,7.00
2017-12-23T21:12:48.905Z,7.10
2017-12-23T21:15:16.499Z,7.00
2017-12-23T21:17:44.127Z,7.10
2017-12-23T21:20:11.707Z,7.10
2017-12-23T21:22:39.473Z,7.10
2017-12-23T21:25:07.068Z,7.10
2017-12-23T21:27:35.432Z,7.10
2017-12-23T21:30:03.851Z,7.00
2017-12-23T21:32:31.445Z,7.00
2017-12-23T21:34:59.038Z,7.10
2017-12-23T21:37:27.444Z,7.10
2017-12-23T21:39:55.074Z,7.10
2017-12-23T21:42:23.394Z,7.10
2017-12-23T21:44:51.038Z,7.10
2017-12-23T21:47:18.655Z,7.10
2017-12-23T21:49:46.209Z,7.20
2017-12-23T21:52:13.796Z,7.20
2017-12-23T21:54:42.156Z,7.20
2017-12-23T21:57:09.746Z,7.20
2017-12-23T21:59:38.101Z,7.20
2017-12-23T22:02:05.700Z,7.20
2017-12-23T22:04:33.263Z,7.20
2017-12-23T22:07:00.828Z,7.20
2017-12-23T22:09:28.392Z,7.30
2017-12-23T22:11:56.072Z,7.30
2017-12-23T22:14:23.663Z,7.30
2017-12-23T22:16:51.263Z,7.30
2017-12-23T22:19:18.817Z,7.30
2017-12-23T22:21:46.416Z,7.30
2017-12-23T22:24:14.013Z,7.30
2017-12-23T22:26:41.600Z,7.30
2017-12-23T22:29:09.208Z,7.40
2017-12-23T22:31:46.724Z,7.40
2017-12-23T22:34:14.381Z,7.30
2017-12-23T22:36:41.971Z,7.30
2017-12-23T22:39:10.375Z,7.40
2017-12-23T22:41:37.956Z,7.30
2017-12-23T22:44:05.509Z,7.30
2017-12-23T22:46:33.112Z,7.40
2017-12-23T22:49:00.653Z,7.40
2017-12-23T22:51:28.243Z,7.30
2017-12-23T22:53:56.595Z,7.30
2017-12-23T22:56:24.149Z,7.30
2017-12-23T22:58:51.738Z,7.30
2017-12-23T23:01:20.087Z,7.30
2017-12-23T23:03:47.659Z,7.30
2017-12-23T23:06:15.252Z,7.30
2017-12-23T23:08:43.608Z,7.20
2017-12-23T23:11:11.962Z,7.20
2017-12-23T23:13:39.553Z,7.20
2017-12-23T23:16:07.915Z,7.30
2017-12-23T23:18:35.500Z,7.30
2017-12-23T23:21:03.855Z,7.30
2017-12-23T23:23:31.443Z,7.20
2017-12-23T23:25:59.804Z,7.30
2017-12-23T23:28:28.158Z,7.30
2017-12-23T23:30:55.822Z,7.20
2017-12-23T23:33:23.402Z,7.30
2017-12-23T23:35:51.713Z,7.20
2017-12-23T23:38:19.303Z,7.20
2017-12-23T23:40:46.907Z,7.20
2017-12-23T23:43:15.259Z,7.30
2017-12-23T23:45:42.844Z,7.30
2017-12-23T23:48:11.160Z,7.20
2017-12-23T23:50:38.751Z,7.20
2017-12-23T23:53:06.387Z,7.20
2017-12-23T23:55:33.970Z,7.20
2017-12-23T23:58:01.563Z,7.20
